KHLC

Hill City Municipal Airport

Hill City, Kansas, USA
METAR KHLC 210353Z AUTO 36006KT 9SM CLR 17/15 A3015 RMK AO2 SLP198 T01670150
Observed Flight Rules
Aug-21 @ 03:53 UTC (18 minutes ago) Visual Flight Rules
Wind Visibility Clouds
360° at 6 knots 9 miles
  • Clear skies
Temperatures Readings
Current 17°C / 63°F
Dewpoint 15°C / 59°F
Humidity 88%
Altimeter 30.15" Hg
Pressure 1019.8 hPa
Elevation 669
METAR KHLC 210353Z AUTO 36006KT 9SM CLR 17/15 A3015 RMK AO2 SLP198 T01670150
Observed Flight Rules
Aug-21 @ 03:53 UTC
(18 minutes ago)
VFR
Wind Visibility
360° at 6 knots 9 miles
Clouds
  • Clear skies
Temperature Dewpoint
17°C / 63°F 15°C / 59°F
Humidity Altimeter Pressure
88% 30.15" Hg 1019.8 hPa